Time;durP1;ratioP1;P1;durP2;ratioP2;P2;SDS_P1;SDS_P2;PMS_P1;PMS_P2;Temp;Humidity;BMP_temperature;BMP_pressure;BME280_temperature;BME280_humidity;BME280_pressure;Samples;Min_cycle;Max_cycle;Signal;HPM_P1;HPM_P2
2022/08/03 00:02:31;;;;;;;;;;;;;;;20.75;100.00;100808.72;10138218;29;19927;-71
2022/08/03 00:07:34;;;;;;;;;;;;;;;20.69;100.00;100804.56;10137516;29;19928;-68
2022/08/03 00:12:37;;;;;;;;;;;;;;;20.62;100.00;100808.38;10137441;29;19938;-70
2022/08/03 00:17:41;;;;;;;;;;;;;;;20.57;100.00;100815.66;10137561;29;19927;-68
2022/08/03 00:22:55;;;;;;;;;;;;;;;20.53;100.00;100815.88;10137175;29;19935;-67
2022/08/03 00:27:59;;;;;;;;;;;;;;;20.51;100.00;100815.94;10137453;29;19942;-71
2022/08/03 00:33:04;;;;;;;;;;;;;;;20.49;100.00;100809.88;10135834;29;19935;-68
2022/08/03 00:43:33;;;;;;;;;;;;;;;20.67;100.00;100802.94;9500410;23;10002132;-71
2022/08/03 00:48:38;;;;;;;;;;;;;;;20.69;100.00;100807.19;10095845;29;19928;-72
2022/08/03 00:53:41;;;;;;;;;;;;;;;20.46;100.00;100817.91;10095084;29;19931;-74
2022/08/03 00:58:45;;;;;;;;;;;;;;;20.28;100.00;100813.41;10094740;29;19935;-70
2022/08/03 01:03:49;;;;;;;;;;;;;;;20.23;100.00;100811.88;10095321;29;19938;-77
2022/08/03 01:09:01;;;;;;;;;;;;;;;20.18;100.00;100816.50;10094479;29;19928;-72
2022/08/03 01:14:06;;;;;;;;;;;;;;;20.18;100.00;100819.13;10094922;29;19932;-73
2022/08/03 01:19:31;;;;;;;;;;;;;;;20.13;100.00;100823.72;10095377;29;19942;-73
2022/08/03 01:24:37;;;;;;;;;;;;;;;20.04;100.00;100814.41;10093916;29;20273;-73
2022/08/03 01:29:52;;;;;;;;;;;;;;;20.05;100.00;100816.13;10094175;29;19947;-70
2022/08/03 01:34:58;;;;;;;;;;;;;;;19.96;100.00;100826.19;10094312;29;19931;-72
2022/08/03 01:40:02;;;;;;;;;;;;;;;19.92;100.00;100824.59;10093905;29;20467;-71
2022/08/03 01:45:08;;;;;;;;;;;;;;;19.94;100.00;100822.75;10101212;29;20314;-76
2022/08/03 01:50:13;;;;;;;;;;;;;;;19.98;100.00;100819.97;10101883;29;19945;-70
2022/08/03 01:55:19;;;;;;;;;;;;;;;19.96;100.00;100808.63;10101712;29;19931;-70
2022/08/03 02:00:25;;;;;;;;;;;;;;;19.94;100.00;100809.59;10101304;29;19931;-73
2022/08/03 02:05:29;;;;;;;;;;;;;;;19.83;100.00;100799.47;10102024;29;19942;-70
2022/08/03 02:10:33;;;;;;;;;;;;;;;19.71;100.00;100807.06;10100374;29;19938;-67
2022/08/03 02:15:39;;;;;;;;;;;;;;;19.60;100.00;100806.59;10100519;29;19975;-68
2022/08/03 02:20:43;;;;;;;;;;;;;;;19.61;100.00;100798.63;10100938;29;19932;-69
2022/08/03 02:25:47;;;;;;;;;;;;;;;19.58;100.00;100796.13;10099914;29;19946;-67
2022/08/03 02:30:53;;;;;;;;;;;;;;;19.50;100.00;100795.56;10099764;29;19934;-67
2022/08/03 02:35:57;;;;;;;;;;;;;;;19.48;100.00;100792.16;10100171;29;19932;-70
2022/08/03 02:41:04;;;;;;;;;;;;;;;19.41;100.00;100803.84;10099586;29;20361;-67
2022/08/03 02:46:09;;;;;;;;;;;;;;;19.55;100.00;100806.81;10104205;29;19934;-74
2022/08/03 02:51:13;;;;;;;;;;;;;;;19.54;100.00;100805.06;10105549;29;19945;-76
2022/08/03 02:56:18;;;;;;;;;;;;;;;19.52;100.00;100804.25;10104054;29;19932;-75
2022/08/03 03:01:23;;;;;;;;;;;;;;;19.57;100.00;100809.38;10104659;29;19928;-75
2022/08/03 03:06:27;;;;;;;;;;;;;;;19.56;100.00;100808.50;10104455;29;20341;-78
2022/08/03 03:11:32;;;;;;;;;;;;;;;19.64;100.00;100811.69;10104205;29;19928;-81
2022/08/03 03:16:36;;;;;;;;;;;;;;;19.61;100.00;100819.72;10104183;29;19934;-74
2022/08/03 03:21:40;;;;;;;;;;;;;;;19.70;100.00;100821.97;10103843;29;19934;-71
2022/08/03 03:26:43;;;;;;;;;;;;;;;19.72;100.00;100821.91;10103517;29;19927;-72
2022/08/03 03:31:47;;;;;;;;;;;;;;;19.80;100.00;100815.41;10103513;29;19938;-74
2022/08/03 03:36:51;;;;;;;;;;;;;;;19.82;100.00;100813.59;10103524;29;19928;-74
2022/08/03 03:41:54;;;;;;;;;;;;;;;19.71;100.00;100818.41;10103051;29;19928;-68
2022/08/03 03:46:58;;;;;;;;;;;;;;;19.69;100.00;100828.16;10102906;29;19928;-66
2022/08/03 03:52:01;;;;;;;;;;;;;;;19.67;100.00;100822.13;10102759;29;19928;-66
2022/08/03 03:57:04;;;;;;;;;;;;;;;19.77;100.00;100826.09;10102690;29;19938;-70
2022/08/03 04:02:10;;;;;;;;;;;;;;;19.79;100.00;100833.94;10102507;29;20341;-70
2022/08/03 04:12:33;;;;;;;;;;;;;;;19.92;100.00;100837.78;10101931;29;19938;-73
2022/08/03 04:17:40;;;;;;;;;;;;;;;19.94;100.00;100843.84;10102064;29;20258;-73
2022/08/03 04:22:43;;;;;;;;;;;;;;;19.98;100.00;100851.59;10101798;29;20288;-74
2022/08/03 04:27:47;;;;;;;;;;;;;;;20.01;100.00;100848.81;10101740;29;19928;-70
2022/08/03 04:33:12;;;;;;;;;;;;;;;20.06;100.00;100857.38;10101183;29;20281;-75
2022/08/03 04:38:18;;;;;;;;;;;;;;;20.09;100.00;100865.16;10101143;29;19936;-74
2022/08/03 04:43:22;;;;;;;;;;;;;;;20.15;100.00;100870.19;10101076;29;19963;-72
2022/08/03 04:48:27;;;;;;;;;;;;;;;20.18;100.00;100866.59;10100851;29;20011;-73
2022/08/03 04:53:30;;;;;;;;;;;;;;;20.11;100.00;100871.22;10100526;29;19927;-74
2022/08/03 04:58:33;;;;;;;;;;;;;;;20.05;100.00;100875.91;10100651;29;20440;-73
2022/08/03 05:03:38;;;;;;;;;;;;;;;20.07;100.00;100866.16;10100413;29;19934;-79
2022/08/03 05:08:41;;;;;;;;;;;;;;;20.12;100.00;100866.81;10100564;29;19931;-73
2022/08/03 05:13:48;;;;;;;;;;;;;;;20.21;100.00;100877.00;10100645;29;19928;-76
2022/08/03 05:18:53;;;;;;;;;;;;;;;20.21;100.00;100880.50;10106073;29;20338;-74
2022/08/03 05:23:56;;;;;;;;;;;;;;;20.19;100.00;100881.50;10108138;29;20337;-74
2022/08/03 05:28:58;;;;;;;;;;;;;;;20.25;100.00;100881.25;10107991;29;19938;-73
2022/08/03 05:34:03;;;;;;;;;;;;;;;20.34;100.00;100884.38;10108235;29;19927;-73
2022/08/03 05:39:06;;;;;;;;;;;;;;;20.49;100.00;100890.75;10107522;29;19928;-75
2022/08/03 05:44:09;;;;;;;;;;;;;;;20.59;100.00;100890.31;10107624;29;19927;-70
2022/08/03 05:49:13;;;;;;;;;;;;;;;20.65;100.00;100890.06;10107460;29;19967;-72
2022/08/03 05:54:16;;;;;;;;;;;;;;;20.64;100.00;100890.97;10107252;29;19934;-75
2022/08/03 05:59:20;;;;;;;;;;;;;;;20.61;100.00;100896.38;10107194;29;20334;-73
2022/08/03 06:04:41;;;;;;;;;;;;;;;20.63;100.00;100902.47;10106856;29;20011;-74
2022/08/03 06:09:44;;;;;;;;;;;;;;;20.69;100.00;100904.81;10106813;29;19928;-79
2022/08/03 06:15:07;;;;;;;;;;;;;;;20.76;100.00;100904.56;10106351;29;19927;-77
2022/08/03 06:20:15;;;;;;;;;;;;;;;20.79;100.00;100909.72;10103480;29;20276;-75
2022/08/03 06:25:19;;;;;;;;;;;;;;;20.82;100.00;100907.78;9762397;29;10000290;-77
2022/08/03 06:30:23;;;;;;;;;;;;;;;20.85;100.00;100907.66;10099826;29;19934;-75
2022/08/03 06:35:27;;;;;;;;;;;;;;;20.83;100.00;100901.59;10100580;29;20281;-75
2022/08/03 06:40:31;;;;;;;;;;;;;;;20.96;100.00;100899.28;10099567;29;19940;-76
2022/08/03 06:45:35;;;;;;;;;;;;;;;21.09;100.00;100903.13;10098969;29;19932;-74
2022/08/03 06:50:40;;;;;;;;;;;;;;;21.14;100.00;100909.91;10099728;29;19932;-75
2022/08/03 06:55:44;;;;;;;;;;;;;;;21.12;100.00;100903.81;10098747;29;19928;-67
2022/08/03 07:00:47;;;;;;;;;;;;;;;21.13;100.00;100900.28;10098892;29;20632;-66
2022/08/03 07:05:51;;;;;;;;;;;;;;;21.15;100.00;100898.44;10098639;29;19942;-68
2022/08/03 07:10:54;;;;;;;;;;;;;;;21.21;100.00;100905.22;10098509;29;19932;-66
2022/08/03 07:15:57;;;;;;;;;;;;;;;21.29;100.00;100914.53;10097742;29;19928;-69
2022/08/03 07:21:01;;;;;;;;;;;;;;;21.38;100.00;100916.72;10098438;29;19939;-64
2022/08/03 07:26:05;;;;;;;;;;;;;;;21.46;100.00;100908.47;10098265;29;19931;-63
2022/08/03 07:31:08;;;;;;;;;;;;;;;21.53;100.00;100921.31;10097271;29;20269;-64
2022/08/03 07:36:12;;;;;;;;;;;;;;;21.57;100.00;100909.66;10097398;29;20364;-70
2022/08/03 07:41:15;;;;;;;;;;;;;;;21.70;100.00;100904.69;10096995;29;20008;-66
2022/08/03 07:46:18;;;;;;;;;;;;;;;21.84;100.00;100910.19;10096666;29;19931;-67
2022/08/03 07:51:22;;;;;;;;;;;;;;;21.98;100.00;100912.19;10096764;29;20027;-67
2022/08/03 07:56:25;;;;;;;;;;;;;;;22.08;100.00;100908.16;10096949;29;19927;-73
2022/08/03 08:01:29;;;;;;;;;;;;;;;22.18;100.00;100910.28;10096304;29;19978;-73
2022/08/03 08:06:33;;;;;;;;;;;;;;;22.29;100.00;100910.63;10095933;29;19936;-75
2022/08/03 08:11:36;;;;;;;;;;;;;;;22.38;100.00;100910.16;10097061;29;19958;-72
2022/08/03 08:16:42;;;;;;;;;;;;;;;22.48;100.00;100919.38;10095763;29;19942;-74
2022/08/03 08:21:46;;;;;;;;;;;;;;;22.66;100.00;100918.47;10095888;29;20349;-73
2022/08/03 08:27:04;;;;;;;;;;;;;;;22.79;100.00;100916.91;10095654;29;19931;-65
2022/08/03 08:32:07;;;;;;;;;;;;;;;22.92;100.00;100914.47;10095107;29;20262;-64
2022/08/03 08:37:12;;;;;;;;;;;;;;;23.00;100.00;100912.31;10094643;29;19939;-65
2022/08/03 08:42:15;;;;;;;;;;;;;;;23.03;100.00;100911.25;10094729;29;20373;-73
2022/08/03 08:47:18;;;;;;;;;;;;;;;23.10;100.00;100910.88;10094731;29;20532;-70
2022/08/03 08:52:24;;;;;;;;;;;;;;;23.19;100.00;100907.75;10093814;29;20677;-71
2022/08/03 08:57:36;;;;;;;;;;;;;;;23.29;100.00;100905.47;10095415;29;20009;-72
2022/08/03 09:02:46;;;;;;;;;;;;;;;23.37;100.00;100906.78;10094613;29;19996;-65
2022/08/03 09:07:51;;;;;;;;;;;;;;;23.51;100.00;100900.72;10094236;29;20157;-66
2022/08/03 09:12:54;;;;;;;;;;;;;;;23.64;98.41;100899.97;10094934;29;19964;-67
2022/08/03 09:17:58;;;;;;;;;;;;;;;23.73;95.35;100901.25;10097119;29;19928;-66
2022/08/03 09:23:03;;;;;;;;;;;;;;;23.86;95.60;100897.00;10097812;29;19932;-67
2022/08/03 09:28:33;;;;;;;;;;;;;;;24.01;93.73;100896.16;10099748;29;20238;-67
2022/08/03 09:33:59;;;;;;;;;;;;;;;24.15;91.78;100890.91;10098725;29;19928;-67
2022/08/03 09:39:05;;;;;;;;;;;;;;;24.04;92.11;100893.31;10099604;29;19927;-68
2022/08/03 09:44:08;;;;;;;;;;;;;;;24.02;89.89;100895.22;10099183;29;19942;-66
2022/08/03 09:49:27;;;;;;;;;;;;;;;23.96;87.87;100893.75;10099485;29;19967;-65
2022/08/03 09:54:32;;;;;;;;;;;;;;;23.85;89.14;100889.97;10098890;29;20350;-67
2022/08/03 09:59:35;;;;;;;;;;;;;;;23.80;90.02;100898.19;10099881;29;20262;-66
2022/08/03 10:04:46;;;;;;;;;;;;;;;23.96;89.48;100883.13;10104092;29;19927;-67
2022/08/03 10:09:58;;;;;;;;;;;;;;;24.41;86.41;100876.13;10106626;29;20349;-70
2022/08/03 10:15:22;;;;;;;;;;;;;;;24.75;84.94;100879.38;10105929;29;19944;-71
2022/08/03 10:20:47;;;;;;;;;;;;;;;25.01;83.23;100873.34;10100705;29;20369;-70
2022/08/03 10:25:53;;;;;;;;;;;;;;;25.32;82.00;100871.44;9763137;29;9999989;-72
2022/08/03 10:30:56;;;;;;;;;;;;;;;25.59;80.64;100875.06;10099687;29;19950;-71
2022/08/03 10:36:00;;;;;;;;;;;;;;;25.91;79.49;100868.50;10099172;29;19928;-71
2022/08/03 10:41:06;;;;;;;;;;;;;;;26.28;77.96;100870.50;10099679;29;19974;-71
2022/08/03 10:46:09;;;;;;;;;;;;;;;26.64;76.19;100869.81;10098920;29;19928;-71
2022/08/03 10:51:12;;;;;;;;;;;;;;;26.97;72.52;100868.38;10098954;29;19936;-71
2022/08/03 11:02:17;;;;;;;;;;;;;;;27.02;72.94;100863.59;10090012;29;19935;-73
2022/08/03 11:07:21;;;;;;;;;;;;;;;27.35;69.42;100859.53;10098169;29;19927;-71
2022/08/03 11:12:26;;;;;;;;;;;;;;;27.62;68.63;100854.88;10098775;29;19979;-73
2022/08/03 11:17:37;;;;;;;;;;;;;;;28.24;66.83;100854.63;10097019;29;19932;-73
2022/08/03 11:22:59;;;;;;;;;;;;;;;28.20;69.26;100847.81;10097764;29;20020;-74
2022/08/03 11:28:21;;;;;;;;;;;;;;;27.65;70.02;100854.63;10099004;29;19999;-73
2022/08/03 11:33:31;;;;;;;;;;;;;;;27.26;71.31;100845.88;10097594;29;19932;-71
2022/08/03 11:38:34;;;;;;;;;;;;;;;27.14;71.52;100849.41;10097298;29;20397;-71
2022/08/03 11:43:45;;;;;;;;;;;;;;;27.04;70.53;100839.50;10097876;29;19932;-72
2022/08/03 11:48:50;;;;;;;;;;;;;;;27.79;68.03;100835.81;10096810;29;20422;-71
2022/08/03 11:53:53;;;;;;;;;;;;;;;28.34;67.17;100828.94;10096518;29;20372;-72
2022/08/03 11:58:58;;;;;;;;;;;;;;;28.84;64.74;100822.38;10097315;29;20254;-72
2022/08/03 12:04:22;;;;;;;;;;;;;;;29.42;63.42;100816.78;10096249;29;19927;-71
2022/08/03 12:09:25;;;;;;;;;;;;;;;29.98;57.76;100819.34;9763737;29;10000535;-71
2022/08/03 12:14:29;;;;;;;;;;;;;;;30.13;56.47;100813.56;10101373;29;20342;-71
2022/08/03 12:19:53;;;;;;;;;;;;;;;30.62;55.29;100812.97;10101638;29;19931;-73
2022/08/03 12:24:56;;;;;;;;;;;;;;;30.82;54.55;100806.78;10101222;29;19934;-72
2022/08/03 12:30:00;;;;;;;;;;;;;;;30.04;56.16;100808.16;10100957;29;20018;-71
2022/08/03 12:35:05;;;;;;;;;;;;;;;30.53;54.83;100809.25;10097961;29;20023;-69
2022/08/03 12:40:09;;;;;;;;;;;;;;;30.83;53.91;100804.94;10098880;29;20350;-69
2022/08/03 12:45:25;;;;;;;;;;;;;;;30.95;53.89;100807.41;10097427;29;20455;-70
2022/08/03 12:50:30;;;;;;;;;;;;;;;31.09;51.21;100801.69;10097736;29;20362;-67
2022/08/03 12:55:34;;;;;;;;;;;;;;;30.07;53.60;100805.22;10097032;29;19991;-68
2022/08/03 13:00:57;;;;;;;;;;;;;;;29.10;56.41;100796.28;10097503;29;20261;-71
2022/08/03 13:06:01;;;;;;;;;;;;;;;28.56;58.71;100792.59;10096948;29;19954;-71
2022/08/03 13:11:17;;;;;;;;;;;;;;;28.23;61.28;100791.50;10097261;29;19964;-70
2022/08/03 13:16:21;;;;;;;;;;;;;;;27.91;63.44;100792.22;10097309;29;19943;-70
2022/08/03 13:21:26;;;;;;;;;;;;;;;27.80;60.39;100781.50;10096936;29;19934;-72
2022/08/03 13:26:29;;;;;;;;;;;;;;;27.80;58.48;100778.81;10104448;29;19967;-72
2022/08/03 13:31:32;;;;;;;;;;;;;;;28.13;57.11;100782.50;10096868;29;19971;-73
2022/08/03 13:36:36;;;;;;;;;;;;;;;27.60;60.30;100782.09;10099424;29;19939;-70
2022/08/03 13:42:00;;;;;;;;;;;;;;;27.25;62.97;100785.50;10107188;29;19928;-70
2022/08/03 13:47:03;;;;;;;;;;;;;;;27.00;64.98;100785.56;10107075;29;20370;-72
2022/08/03 13:52:07;;;;;;;;;;;;;;;26.80;65.53;100778.09;10107243;29;19928;-71
2022/08/03 13:57:10;;;;;;;;;;;;;;;26.67;66.92;100777.28;10106712;29;19928;-70
2022/08/03 14:02:33;;;;;;;;;;;;;;;26.59;65.72;100790.25;10106875;29;19936;-73
2022/08/03 14:07:38;;;;;;;;;;;;;;;26.55;64.01;100782.56;10106579;29;19928;-71
2022/08/03 14:12:40;;;;;;;;;;;;;;;26.43;67.13;100768.28;10105526;29;19927;-72
2022/08/03 14:17:43;;;;;;;;;;;;;;;26.34;67.97;100774.22;10106321;29;19967;-71
2022/08/03 14:22:54;;;;;;;;;;;;;;;26.26;68.43;100775.72;10106133;29;19950;-72
2022/08/03 14:27:56;;;;;;;;;;;;;;;26.39;68.35;100766.78;10105476;29;19927;-73
2022/08/03 14:32:59;;;;;;;;;;;;;;;26.95;67.24;100766.38;10105329;29;19928;-70
2022/08/03 14:38:04;;;;;;;;;;;;;;;27.34;65.01;100749.34;10105294;29;20045;-70
2022/08/03 14:43:07;;;;;;;;;;;;;;;27.61;64.29;100749.13;10105228;29;20269;-72
2022/08/03 14:48:11;;;;;;;;;;;;;;;27.81;63.24;100749.34;10103624;29;20277;-69
2022/08/03 14:53:35;;;;;;;;;;;;;;;28.01;62.80;100743.38;10105319;29;19953;-70
2022/08/03 14:58:38;;;;;;;;;;;;;;;27.73;63.14;100740.22;10104372;29;19928;-72
2022/08/03 15:03:42;;;;;;;;;;;;;;;27.82;61.21;100743.03;10104988;29;19928;-76
2022/08/03 15:08:48;;;;;;;;;;;;;;;27.70;62.61;100738.63;10104369;29;19938;-71
2022/08/03 15:14:11;;;;;;;;;;;;;;;27.57;63.80;100739.66;10104177;29;19928;-71
2022/08/03 15:19:16;;;;;;;;;;;;;;;27.21;65.59;100738.69;10104454;29;19927;-71
2022/08/03 15:24:40;;;;;;;;;;;;;;;27.02;67.41;100746.31;10104127;29;19934;-72
2022/08/03 15:29:43;;;;;;;;;;;;;;;27.18;67.30;100732.75;10102055;29;20262;-70
2022/08/03 15:35:07;;;;;;;;;;;;;;;27.19;67.35;100731.78;10103655;29;19929;-71
2022/08/03 15:40:12;;;;;;;;;;;;;;;27.06;68.73;100737.13;10101840;29;19938;-72
2022/08/03 15:45:15;;;;;;;;;;;;;;;26.92;69.84;100725.78;10100154;29;19938;-72
2022/08/03 15:50:22;;;;;;;;;;;;;;;26.64;69.99;100732.19;10099631;29;19938;-71
2022/08/03 15:55:26;;;;;;;;;;;;;;;26.45;71.29;100723.78;10099623;29;19974;-71
2022/08/03 16:00:29;;;;;;;;;;;;;;;26.29;72.05;100723.13;10098920;29;19963;-71
2022/08/03 16:05:35;;;;;;;;;;;;;;;26.15;73.00;100709.91;10099259;29;20011;-71
2022/08/03 16:10:40;;;;;;;;;;;;;;;26.00;73.78;100716.25;10099223;29;19928;-71
2022/08/03 16:15:43;;;;;;;;;;;;;;;25.88;73.85;100703.78;9724986;29;10000206;-73
2022/08/03 16:20:46;;;;;;;;;;;;;;;25.82;73.83;100699.72;10072390;29;20362;-71
2022/08/03 16:25:50;;;;;;;;;;;;;;;25.71;75.18;100704.94;10098406;29;19959;-73
2022/08/03 16:30:53;;;;;;;;;;;;;;;25.60;77.01;100703.91;10098354;29;19928;-65
2022/08/03 16:35:56;;;;;;;;;;;;;;;25.46;77.53;100709.28;10098013;29;19938;-65
2022/08/03 16:41:01;;;;;;;;;;;;;;;25.39;77.24;100697.34;10097731;29;19935;-66
2022/08/03 16:46:04;;;;;;;;;;;;;;;25.34;77.54;100704.75;10097829;29;19934;-66
2022/08/03 16:51:08;;;;;;;;;;;;;;;25.26;78.03;100702.59;10097001;29;21370;-68
2022/08/03 16:56:13;;;;;;;;;;;;;;;25.23;78.32;100708.09;10097614;29;19934;-64
2022/08/03 17:01:16;;;;;;;;;;;;;;;25.19;78.14;100705.75;10097438;29;20401;-64
2022/08/03 17:06:27;;;;;;;;;;;;;;;25.14;78.46;100709.53;10097377;29;19936;-65
2022/08/03 17:11:41;;;;;;;;;;;;;;;25.13;78.86;100721.13;10096133;29;19939;-68
2022/08/03 17:16:50;;;;;;;;;;;;;;;25.11;79.64;100716.84;10097219;29;19932;-68
2022/08/03 17:21:59;;;;;;;;;;;;;;;25.06;80.21;100725.13;10096766;29;20299;-68
2022/08/03 17:27:07;;;;;;;;;;;;;;;25.02;81.22;100720.13;10096747;29;19935;-69
2022/08/03 17:32:32;;;;;;;;;;;;;;;24.98;81.82;100727.44;10096886;29;19928;-67
2022/08/03 17:37:35;;;;;;;;;;;;;;;24.94;82.24;100730.38;10096509;29;20307;-68
2022/08/03 17:43:00;;;;;;;;;;;;;;;24.90;82.88;100739.50;10096480;29;19946;-69
2022/08/03 17:48:23;;;;;;;;;;;;;;;24.82;83.69;100749.72;10096824;29;19935;-69
2022/08/03 17:53:29;;;;;;;;;;;;;;;24.75;84.06;100754.56;10096405;29;20270;-68
2022/08/03 17:58:39;;;;;;;;;;;;;;;24.71;84.45;100762.84;10096296;29;19982;-68
2022/08/03 18:03:46;;;;;;;;;;;;;;;24.65;85.29;100760.50;10096130;29;19927;-69
2022/08/03 18:09:10;;;;;;;;;;;;;;;24.56;85.99;100775.19;10096106;29;19939;-68
2022/08/03 18:14:42;;;;;;;;;;;;;;;24.50;85.71;100775.59;10095672;29;20293;-68
2022/08/03 18:20:02;;;;;;;;;;;;;;;24.46;85.30;100783.81;10096059;29;20277;-68
2022/08/03 18:25:26;;;;;;;;;;;;;;;24.39;85.43;100780.69;10100227;29;19932;-69
2022/08/03 18:30:50;;;;;;;;;;;;;;;24.31;85.15;100787.41;10102679;29;20026;-70
2022/08/03 18:35:56;;;;;;;;;;;;;;;24.25;85.44;100801.00;10102386;29;20022;-71
2022/08/03 18:41:00;;;;;;;;;;;;;;;24.17;86.41;100801.47;10102596;29;19928;-69
2022/08/03 18:46:06;;;;;;;;;;;;;;;24.11;87.42;100812.44;10102104;29;19974;-70
2022/08/03 18:51:10;;;;;;;;;;;;;;;24.02;88.25;100813.84;10102397;29;19928;-69
2022/08/03 18:56:34;;;;;;;;;;;;;;;23.94;87.65;100828.44;10104862;29;19928;-70
2022/08/03 19:01:41;;;;;;;;;;;;;;;23.87;87.89;100821.78;10104758;29;19928;-71
2022/08/03 19:07:05;;;;;;;;;;;;;;;23.80;88.01;100825.72;10104708;29;19928;-72
2022/08/03 19:12:13;;;;;;;;;;;;;;;23.72;88.26;100834.13;10104210;29;19928;-71
2022/08/03 19:17:35;;;;;;;;;;;;;;;23.61;89.49;100825.06;10103933;29;20373;-69
2022/08/03 19:22:40;;;;;;;;;;;;;;;23.50;90.29;100833.63;10103955;29;19935;-69
2022/08/03 19:27:48;;;;;;;;;;;;;;;23.42;90.97;100837.63;10103807;29;19927;-69
2022/08/03 19:32:53;;;;;;;;;;;;;;;23.36;90.82;100838.84;10103570;29;19928;-69
2022/08/03 19:37:56;;;;;;;;;;;;;;;23.28;91.79;100834.91;10102609;29;20018;-69
2022/08/03 19:43:07;;;;;;;;;;;;;;;23.22;92.66;100836.06;10103008;29;19936;-68
2022/08/03 19:48:13;;;;;;;;;;;;;;;23.17;92.74;100835.44;10102830;29;19928;-69
2022/08/03 19:53:17;;;;;;;;;;;;;;;23.09;93.64;100837.63;10102916;29;20022;-69
2022/08/03 19:58:23;;;;;;;;;;;;;;;23.02;94.97;100838.06;10102401;29;19938;-68
2022/08/03 20:03:32;;;;;;;;;;;;;;;22.97;95.77;100834.81;10102413;29;20392;-67
2022/08/03 20:08:45;;;;;;;;;;;;;;;22.92;96.14;100840.34;10102448;29;19928;-68
2022/08/03 20:13:54;;;;;;;;;;;;;;;22.88;95.96;100834.34;10101614;29;19994;-69
2022/08/03 20:18:59;;;;;;;;;;;;;;;22.82;96.63;100845.28;10101990;29;19939;-69
2022/08/03 20:24:05;;;;;;;;;;;;;;;22.78;96.89;100833.13;10102239;29;19938;-69
2022/08/03 20:29:29;;;;;;;;;;;;;;;22.77;97.09;100839.38;10101355;29;19942;-71
2022/08/03 20:34:53;;;;;;;;;;;;;;;22.72;97.62;100841.41;10101833;29;19938;-68
2022/08/03 20:39:57;;;;;;;;;;;;;;;22.63;98.11;100843.66;9761185;29;10000520;-67
2022/08/03 20:45:00;;;;;;;;;;;;;;;22.59;97.68;100844.78;10097836;29;20023;-67
2022/08/03 20:50:10;;;;;;;;;;;;;;;22.53;97.63;100840.59;10098054;29;20242;-67
2022/08/03 20:55:13;;;;;;;;;;;;;;;22.47;98.17;100840.91;10097801;29;19927;-68
2022/08/03 21:00:18;;;;;;;;;;;;;;;22.48;98.52;100847.94;10097822;29;19943;-67
2022/08/03 21:05:25;;;;;;;;;;;;;;;22.47;98.84;100853.28;10097600;29;19932;-70
2022/08/03 21:10:48;;;;;;;;;;;;;;;22.55;99.07;100856.44;10097228;29;20039;-72
2022/08/03 21:15:52;;;;;;;;;;;;;;;22.52;98.90;100859.22;10097287;29;19928;-79
2022/08/03 21:21:18;;;;;;;;;;;;;;;22.50;99.28;100858.44;10097108;29;19954;-72
2022/08/03 21:26:22;;;;;;;;;;;;;;;22.45;99.47;100860.47;10097027;29;20273;-72
2022/08/03 21:31:25;;;;;;;;;;;;;;;22.43;99.87;100871.13;10097107;29;19927;-70
2022/08/03 21:36:31;;;;;;;;;;;;;;;22.40;99.77;100868.59;10097205;29;20022;-73
2022/08/03 21:41:35;;;;;;;;;;;;;;;22.34;100.00;100862.78;10096973;29;20455;-73
2022/08/03 21:46:39;;;;;;;;;;;;;;;22.34;100.00;100870.72;10096598;29;20261;-69
2022/08/03 21:51:45;;;;;;;;;;;;;;;22.29;100.00;100880.66;10096841;29;19931;-74
2022/08/03 21:56:50;;;;;;;;;;;;;;;22.23;100.00;100873.88;10096576;29;20261;-75
2022/08/03 22:01:53;;;;;;;;;;;;;;;22.18;100.00;100877.69;10103668;29;19939;-73
2022/08/03 22:07:01;;;;;;;;;;;;;;;22.15;100.00;100886.66;10103951;29;19940;-74
2022/08/03 22:12:05;;;;;;;;;;;;;;;22.08;100.00;100882.59;10103493;29;19928;-71
2022/08/03 22:17:08;;;;;;;;;;;;;;;22.01;100.00;100886.47;10103718;29;20012;-72
2022/08/03 22:22:14;;;;;;;;;;;;;;;21.94;99.98;100874.47;10103275;29;19931;-73
2022/08/03 22:27:33;;;;;;;;;;;;;;;21.90;99.33;100874.69;10103206;29;20274;-71
2022/08/03 22:32:37;;;;;;;;;;;;;;;21.90;99.70;100885.28;10102827;29;19946;-68
2022/08/03 22:37:41;;;;;;;;;;;;;;;21.81;99.16;100877.78;10102405;29;19928;-70
2022/08/03 22:42:48;;;;;;;;;;;;;;;21.77;99.87;100879.66;10102735;29;19927;-67
2022/08/03 22:47:54;;;;;;;;;;;;;;;21.70;99.49;100870.31;10102288;29;19927;-67
2022/08/03 22:52:59;;;;;;;;;;;;;;;21.65;99.71;100877.63;10102682;29;20007;-68
2022/08/03 22:58:02;;;;;;;;;;;;;;;21.54;100.00;100872.81;10101763;29;20246;-68
2022/08/03 23:03:06;;;;;;;;;;;;;;;21.54;99.98;100879.88;10101865;29;19938;-68
2022/08/03 23:08:12;;;;;;;;;;;;;;;21.53;99.83;100878.19;10101737;29;19928;-68
2022/08/03 23:13:16;;;;;;;;;;;;;;;21.47;100.00;100878.47;10100530;29;19928;-70
2022/08/03 23:18:20;;;;;;;;;;;;;;;21.46;100.00;100876.75;10101270;29;20357;-71
2022/08/03 23:23:25;;;;;;;;;;;;;;;21.36;100.00;100870.19;10101378;29;19934;-68
2022/08/03 23:28:29;;;;;;;;;;;;;;;21.36;100.00;100875.47;10101261;29;19942;-69
2022/08/03 23:33:33;;;;;;;;;;;;;;;21.25;100.00;100867.16;10100681;29;19942;-71
2022/08/03 23:38:38;;;;;;;;;;;;;;;21.25;100.00;100870.69;10100701;29;19943;-72
2022/08/03 23:43:43;;;;;;;;;;;;;;;21.26;100.00;100869.75;10100651;29;19927;-72
2022/08/03 23:48:56;;;;;;;;;;;;;;;21.17;100.00;100869.31;10103219;29;19987;-75
2022/08/03 23:54:03;;;;;;;;;;;;;;;21.17;100.00;100864.03;10102965;29;19939;-74
2022/08/03 23:59:09;;;;;;;;;;;;;;;21.11;100.00;100859.88;10102785;29;20268;-75
